createdAt,value
2022-10-31T19:02:24.334Z,27.2
2022-10-31T19:07:46.770Z,26.6
2022-10-31T19:13:09.308Z,26.1
2022-10-31T19:18:32.458Z,25.6
2022-10-31T19:23:55.075Z,25.1
2022-10-31T19:29:22.721Z,24.8
2022-10-31T19:34:45.210Z,24.4
2022-10-31T19:40:07.125Z,24.2
2022-10-31T19:45:28.116Z,23.9
2022-10-31T19:51:11.400Z,23.8
2022-10-31T19:56:33.823Z,23.6
2022-10-31T20:02:27.846Z,23.4
2022-10-31T20:08:10.182Z,23.3
2022-10-31T20:13:33.056Z,23.3
2022-10-31T20:19:10.945Z,23.1
2022-10-31T20:24:49.283Z,23.1
2022-10-31T20:30:27.433Z,23
2022-10-31T20:36:06.195Z,22.9
2022-10-31T20:41:18.664Z,22.9
2022-10-31T20:46:41.165Z,22.8
2022-10-31T20:52:02.916Z,22.8
2022-10-31T20:57:46.112Z,22.8
2022-10-31T21:03:25.135Z,22.8
2022-10-31T21:09:02.614Z,22.8
2022-10-31T21:14:46.261Z,22.8
2022-10-31T21:20:23.940Z,22.7
2022-10-31T21:26:03.193Z,22.7
2022-10-31T21:31:44.238Z,22.7
2022-10-31T21:37:06.405Z,22.6
2022-10-31T21:42:37.794Z,22.6
2022-10-31T21:48:15.734Z,22.6
2022-10-31T21:53:38.343Z,22.6
2022-10-31T21:59:15.288Z,22.6
2022-10-31T22:04:53.977Z,22.6
2022-10-31T22:10:32.140Z,22.6
2022-10-31T22:15:38.753Z,22.6
2022-10-31T22:21:17.024Z,22.6
2022-10-31T22:26:39.451Z,22.5
2022-10-31T22:32:18.436Z,22.5
2022-10-31T22:37:56.350Z,22.6
2022-10-31T22:43:18.404Z,22.5
2022-10-31T22:48:55.354Z,22.5
2022-10-31T22:54:17.289Z,22.5
2022-10-31T22:59:58.974Z,22.5
2022-10-31T23:05:23.246Z,22.5
